Terminal Aerodrome Forecast
Issued by NWS

Home | Current Version | Previous Version | Text Only | Print | Product List | Glossary On
Versions: 1 2 3 4 5 6 7 8 9 10 11 12 13 14 15 16
000
FTUS44 KCRP 181129
TAFLRD
TAF
KLRD 181129Z 1812/1912 03004KT 4SM BR OVC005
     FM181500 22008KT P6SM BKN040
     FM182100 32008KT P6SM SCT020
     FM190200 16005KT P6SM SCT015=

USA.gov is the U.S. government's official web portal to all federal, state and local government web resources and services.